Time;durP1;ratioP1;P1;durP2;ratioP2;P2;SDS_P1;SDS_P2;PMS_P1;PMS_P2;Temp;Humidity;BMP_temperature;BMP_pressure;BME280_temperature;BME280_humidity;BME280_pressure;Samples;Min_cycle;Max_cycle;Signal;HPM_P1;HPM_P2
2023/11/24 00:00:51;;;;;;;15.20;11.07;;;;;;;;;;5076032;28;20048;-59
2023/11/24 00:03:18;;;;;;;15.10;10.35;;;;;;;;;;5076916;28;20027;-61
2023/11/24 00:05:44;;;;;;;13.80;9.30;;;;;;;;;;5083879;28;20028;-62
2023/11/24 00:08:10;;;;;;;14.32;9.40;;;;;;;;;;5094548;28;20032;-59
2023/11/24 00:10:36;;;;;;;14.25;9.65;;;;;;;;;;5082436;22;20182;-47
2023/11/24 00:13:02;;;;;;;19.52;10.95;;;;;;;;;;5070299;28;20028;-48
2023/11/24 00:15:28;;;;;;;18.90;9.00;;;;;;;;;;5071159;28;20032;-54
2023/11/24 00:17:54;;;;;;;13.38;7.90;;;;;;;;;;5071312;28;20035;-50
2023/11/24 00:20:21;;;;;;;15.65;8.20;;;;;;;;;;5070615;28;20486;-51
2023/11/24 00:22:48;;;;;;;15.98;8.18;;;;;;;;;;5071318;28;20379;-50
2023/11/24 00:25:14;;;;;;;14.90;8.00;;;;;;;;;;5070956;28;20522;-50
2023/11/24 00:27:40;;;;;;;15.10;8.48;;;;;;;;;;5071514;28;20025;-51
2023/11/24 00:30:07;;;;;;;16.55;8.43;;;;;;;;;;5071162;28;20667;-48
2023/11/24 00:32:36;;;;;;;22.20;8.15;;;;;;;;;;5072031;28;20028;-53
2023/11/24 00:35:06;;;;;;;15.40;8.48;;;;;;;;;;5071953;28;20067;-48
2023/11/24 00:37:32;;;;;;;13.77;7.93;;;;;;;;;;5072000;28;20059;-49
2023/11/24 00:39:58;;;;;;;16.45;8.02;;;;;;;;;;5069747;28;20482;-52
2023/11/24 00:42:24;;;;;;;15.45;9.48;;;;;;;;;;5071727;28;20119;-51
2023/11/24 00:44:50;;;;;;;16.33;8.52;;;;;;;;;;5071740;28;20016;-49
2023/11/24 00:47:17;;;;;;;13.20;7.63;;;;;;;;;;5070345;28;20393;-51
2023/11/24 00:49:43;;;;;;;12.65;7.45;;;;;;;;;;5071317;28;20059;-52
2023/11/24 00:52:09;;;;;;;25.33;8.30;;;;;;;;;;5069894;28;20466;-51
2023/11/24 00:54:35;;;;;;;12.27;7.18;;;;;;;;;;5070479;28;20089;-48
2023/11/24 00:57:01;;;;;;;12.40;7.22;;;;;;;;;;5071623;28;20021;-49
2023/11/24 00:59:27;;;;;;;13.55;7.35;;;;;;;;;;5071430;28;20043;-47
2023/11/24 01:01:53;;;;;;;11.57;6.78;;;;;;;;;;5070986;28;20021;-48
2023/11/24 01:04:19;;;;;;;12.70;7.00;;;;;;;;;;5070006;28;20394;-49
2023/11/24 01:06:45;;;;;;;11.32;6.68;;;;;;;;;;5070296;28;20021;-49
2023/11/24 01:09:11;;;;;;;11.40;6.65;;;;;;;;;;5071326;28;20482;-49
2023/11/24 01:11:37;;;;;;;13.07;6.72;;;;;;;;;;5070770;28;20064;-51
2023/11/24 01:14:04;;;;;;;11.48;6.70;;;;;;;;;;5070013;28;20032;-49
2023/11/24 01:16:30;;;;;;;11.63;6.80;;;;;;;;;;5071281;28;20027;-46
2023/11/24 01:18:57;;;;;;;12.10;7.20;;;;;;;;;;5070960;28;20032;-53
2023/11/24 01:21:24;;;;;;;13.13;7.97;;;;;;;;;;5069108;28;20029;-51
2023/11/24 01:23:50;;;;;;;11.70;6.80;;;;;;;;;;5070753;28;20359;-53
2023/11/24 01:26:16;;;;;;;11.93;6.95;;;;;;;;;;5070878;28;20043;-50
2023/11/24 01:28:43;;;;;;;11.77;6.88;;;;;;;;;;5071056;28;20017;-49
2023/11/24 01:31:09;;;;;;;11.70;6.82;;;;;;;;;;5070328;28;20041;-49
2023/11/24 01:33:36;;;;;;;11.80;6.90;;;;;;;;;;5070913;28;20032;-47
2023/11/24 01:36:02;;;;;;;11.80;6.90;;;;;;;;;;5070066;28;20027;-48
2023/11/24 01:38:28;;;;;;;12.05;7.00;;;;;;;;;;5070528;28;20070;-49
2023/11/24 01:40:54;;;;;;;12.13;7.00;;;;;;;;;;5068482;28;20036;-50
2023/11/24 01:43:20;;;;;;;11.80;6.90;;;;;;;;;;5070349;28;20028;-51
2023/11/24 01:45:46;;;;;;;15.93;7.30;;;;;;;;;;5070514;28;20096;-53
2023/11/24 01:48:15;;;;;;;11.75;6.82;;;;;;;;;;5070419;28;20469;-48
2023/11/24 01:50:42;;;;;;;11.30;6.60;;;;;;;;;;5069596;28;20028;-48
2023/11/24 01:53:08;;;;;;;12.90;6.95;;;;;;;;;;5070613;28;20055;-51
2023/11/24 01:55:35;;;;;;;11.60;6.57;;;;;;;;;;5070576;28;20020;-52
2023/11/24 01:58:01;;;;;;;11.60;6.75;;;;;;;;;;5069364;28;20067;-54
2023/11/24 02:00:27;;;;;;;11.30;6.65;;;;;;;;;;5069812;28;20077;-49
2023/11/24 02:02:53;;;;;;;11.48;6.68;;;;;;;;;;5070344;28;20028;-49
2023/11/24 02:05:21;;;;;;;11.57;6.78;;;;;;;;;;5070359;28;20024;-47
2023/11/24 02:07:47;;;;;;;11.40;6.63;;;;;;;;;;5070339;28;20016;-49
2023/11/24 02:10:14;;;;;;;13.40;7.43;;;;;;;;;;5068484;28;20040;-49
2023/11/24 02:12:40;;;;;;;11.63;6.80;;;;;;;;;;5069105;28;20033;-49
2023/11/24 02:15:07;;;;;;;11.10;6.50;;;;;;;;;;5070486;28;20384;-47
2023/11/24 02:17:33;;;;;;;11.05;6.45;;;;;;;;;;5070471;28;20112;-49
2023/11/24 02:19:59;;;;;;;11.15;6.50;;;;;;;;;;5069735;28;20032;-52
2023/11/24 02:22:25;;;;;;;11.40;6.60;;;;;;;;;;5070894;28;20025;-50
2023/11/24 02:24:52;;;;;;;11.23;6.53;;;;;;;;;;5070842;28;20025;-52
2023/11/24 02:27:20;;;;;;;12.40;7.30;;;;;;;;;;5070184;28;20032;-50
2023/11/24 02:29:47;;;;;;;11.98;6.97;;;;;;;;;;5067964;28;20024;-52
2023/11/24 02:32:13;;;;;;;14.98;7.68;;;;;;;;;;5070102;28;20033;-44
2023/11/24 02:34:39;;;;;;;12.85;7.30;;;;;;;;;;5068650;28;20035;-51
2023/11/24 02:37:06;;;;;;;12.07;7.00;;;;;;;;;;5070140;28;20073;-48
2023/11/24 02:39:32;;;;;;;11.88;6.93;;;;;;;;;;5069641;28;20095;-51
2023/11/24 02:41:59;;;;;;;26.60;7.57;;;;;;;;;;5069350;28;20031;-53
2023/11/24 02:44:25;;;;;;;11.43;6.65;;;;;;;;;;5069812;28;20024;-50
2023/11/24 02:46:51;;;;;;;12.05;7.20;;;;;;;;;;5069806;28;20421;-48
2023/11/24 02:49:19;;;;;;;12.07;7.00;;;;;;;;;;5073029;28;20032;-49
2023/11/24 02:51:45;;;;;;;11.82;7.10;;;;;;;;;;5073261;28;20178;-48
2023/11/24 02:54:11;;;;;;;11.98;7.00;;;;;;;;;;5074012;28;20502;-47
2023/11/24 02:56:37;;;;;;;12.30;7.20;;;;;;;;;;5074072;28;20055;-53
2023/11/24 02:59:04;;;;;;;12.30;7.25;;;;;;;;;;5073740;28;20025;-49
2023/11/24 03:01:30;;;;;;;13.30;6.97;;;;;;;;;;5072948;28;20040;-50
2023/11/24 03:03:56;;;;;;;11.88;7.40;;;;;;;;;;5073506;28;20070;-49
2023/11/24 03:06:22;;;;;;;11.88;6.90;;;;;;;;;;5073620;28;20462;-52
2023/11/24 03:08:48;;;;;;;11.27;6.60;;;;;;;;;;5073749;28;20051;-52
2023/11/24 03:11:14;;;;;;;14.80;12.20;;;;;;;;;;5072680;28;20052;-48
2023/11/24 03:13:40;;;;;;;16.02;11.38;;;;;;;;;;5073490;28;20549;-48
2023/11/24 03:16:06;;;;;;;14.65;10.68;;;;;;;;;;5073439;28;20108;-47
2023/11/24 03:18:33;;;;;;;19.92;9.90;;;;;;;;;;5072236;28;20055;-48
2023/11/24 03:20:59;;;;;;;13.68;8.82;;;;;;;;;;5072590;28;20047;-53
2023/11/24 03:23:25;;;;;;;13.60;8.73;;;;;;;;;;5073286;28;20029;-50
2023/11/24 03:25:51;;;;;;;13.63;8.75;;;;;;;;;;5073289;28;20078;-49
2023/11/24 03:28:21;;;;;;;14.32;8.88;;;;;;;;;;5073200;28;20020;-51
2023/11/24 03:30:47;;;;;;;14.30;8.85;;;;;;;;;;5072518;28;20051;-49
2023/11/24 03:33:15;;;;;;;14.65;7.95;;;;;;;;;;5071721;28;20474;-48
2023/11/24 03:35:41;;;;;;;13.27;7.78;;;;;;;;;;5073354;28;20035;-49
2023/11/24 03:38:07;;;;;;;18.05;8.48;;;;;;;;;;5071633;28;20032;-50
2023/11/24 03:40:34;;;;;;;12.90;7.50;;;;;;;;;;5072323;28;20032;-47
2023/11/24 03:43:02;;;;;;;13.50;8.10;;;;;;;;;;5072969;28;20029;-52
2023/11/24 03:45:28;;;;;;;13.10;7.70;;;;;;;;;;5073503;28;20036;-51
2023/11/24 03:47:54;;;;;;;12.40;7.20;;;;;;;;;;5072930;28;20024;-52
2023/11/24 03:50:20;;;;;;;12.40;7.10;;;;;;;;;;5072292;28;20076;-52
2023/11/24 03:52:46;;;;;;;15.15;8.77;;;;;;;;;;5072574;28;20112;-50
2023/11/24 03:55:13;;;;;;;12.52;7.22;;;;;;;;;;5073014;28;20025;-47
2023/11/24 03:57:40;;;;;;;12.57;7.50;;;;;;;;;;5072725;28;20024;-51
2023/11/24 04:00:06;;;;;;;13.35;7.50;;;;;;;;;;5070963;28;20353;-51
2023/11/24 04:02:32;;;;;;;12.68;7.45;;;;;;;;;;5071192;28;20024;-51
2023/11/24 04:04:58;;;;;;;12.60;7.50;;;;;;;;;;5072487;28;20028;-52
2023/11/24 04:07:25;;;;;;;12.18;7.05;;;;;;;;;;5071046;28;20025;-54
2023/11/24 04:09:51;;;;;;;12.30;7.10;;;;;;;;;;5071624;28;20221;-47
2023/11/24 04:12:17;;;;;;;14.75;8.15;;;;;;;;;;5072312;28;20024;-47
2023/11/24 04:14:43;;;;;;;12.00;7.00;;;;;;;;;;5072332;28;20021;-46
2023/11/24 04:17:09;;;;;;;12.45;7.20;;;;;;;;;;5072315;28;20019;-49
2023/11/24 04:19:36;;;;;;;11.90;6.90;;;;;;;;;;5072051;28;20025;-53
2023/11/24 04:22:02;;;;;;;14.57;8.13;;;;;;;;;;5071712;28;20108;-52
2023/11/24 04:24:28;;;;;;;12.73;7.43;;;;;;;;;;5072231;28;20123;-47
2023/11/24 04:26:54;;;;;;;12.90;7.50;;;;;;;;;;5072107;28;20024;-46
2023/11/24 04:29:21;;;;;;;13.65;7.70;;;;;;;;;;5072142;28;20082;-49
2023/11/24 04:31:47;;;;;;;13.38;8.55;;;;;;;;;;5071413;28;20104;-53
2023/11/24 04:34:13;;;;;;;11.98;6.97;;;;;;;;;;5071786;28;20162;-47
2023/11/24 04:36:39;;;;;;;16.52;8.07;;;;;;;;;;5070820;28;20048;-53
2023/11/24 04:39:05;;;;;;;11.73;6.82;;;;;;;;;;5071825;28;20071;-50
2023/11/24 04:41:31;;;;;;;11.60;6.80;;;;;;;;;;5071197;28;20028;-51
2023/11/24 04:43:57;;;;;;;12.05;7.47;;;;;;;;;;5070446;28;20068;-50
2023/11/24 04:46:23;;;;;;;12.00;7.25;;;;;;;;;;5071993;28;20056;-52
2023/11/24 04:48:50;;;;;;;11.90;7.00;;;;;;;;;;5070513;28;20052;-47
2023/11/24 04:51:16;;;;;;;12.40;7.22;;;;;;;;;;5070989;28;20024;-50
2023/11/24 04:53:42;;;;;;;12.50;7.35;;;;;;;;;;5071722;28;20086;-50
2023/11/24 04:56:08;;;;;;;12.10;7.00;;;;;;;;;;5071528;28;20103;-52
2023/11/24 04:58:34;;;;;;;12.02;6.97;;;;;;;;;;5071643;28;20032;-50
2023/11/24 05:01:00;;;;;;;12.00;7.00;;;;;;;;;;5070902;28;20024;-50
2023/11/24 05:03:26;;;;;;;12.05;7.03;;;;;;;;;;5071249;28;20024;-52
2023/11/24 05:05:52;;;;;;;12.50;6.97;;;;;;;;;;5071442;28;20048;-50
2023/11/24 05:08:18;;;;;;;13.25;7.85;;;;;;;;;;5071247;28;20048;-49
2023/11/24 05:10:44;;;;;;;12.10;7.28;;;;;;;;;;5070411;28;20045;-52
2023/11/24 05:13:10;;;;;;;11.40;6.68;;;;;;;;;;5071227;28;20033;-54
2023/11/24 05:15:37;;;;;;;11.65;6.80;;;;;;;;;;5071291;28;20050;-48
2023/11/24 05:18:03;;;;;;;12.05;7.00;;;;;;;;;;5071067;28;20029;-48
2023/11/24 05:20:29;;;;;;;11.52;6.70;;;;;;;;;;5070285;28;20021;-51
2023/11/24 05:22:55;;;;;;;13.05;7.97;;;;;;;;;;5069703;28;20429;-46
2023/11/24 05:25:22;;;;;;;11.70;6.80;;;;;;;;;;5070972;28;20066;-50
2023/11/24 05:27:48;;;;;;;11.68;6.80;;;;;;;;;;5069853;28;20157;-50
2023/11/24 05:30:15;;;;;;;12.00;6.90;;;;;;;;;;5070094;28;20813;-47
2023/11/24 05:32:41;;;;;;;12.45;7.03;;;;;;;;;;5070797;28;20016;-50
2023/11/24 05:35:07;;;;;;;11.85;6.90;;;;;;;;;;5070738;28;20097;-51
2023/11/24 05:37:33;;;;;;;12.30;6.78;;;;;;;;;;5069482;28;20519;-49
2023/11/24 05:40:01;;;;;;;31.63;8.75;;;;;;;;;;5069818;28;20063;-48
2023/11/24 05:42:27;;;;;;;11.13;6.53;;;;;;;;;;5070541;28;20540;-46
2023/11/24 05:44:54;;;;;;;21.50;7.15;;;;;;;;;;5071027;28;20025;-48
2023/11/24 05:47:20;;;;;;;11.98;6.95;;;;;;;;;;5070623;28;20029;-48
2023/11/24 05:49:48;;;;;;;12.13;6.90;;;;;;;;;;5069875;28;20078;-53
2023/11/24 05:52:17;;;;;;;11.63;6.97;;;;;;;;;;5070621;28;20027;-46
2023/11/24 05:54:43;;;;;;;10.77;6.30;;;;;;;;;;5070494;28;20551;-48
2023/11/24 05:57:09;;;;;;;12.02;7.07;;;;;;;;;;5070984;28;20012;-46
2023/11/24 05:59:35;;;;;;;11.32;6.57;;;;;;;;;;5070540;28;20140;-47
2023/11/24 06:02:03;;;;;;;11.45;6.80;;;;;;;;;;5069843;28;20100;-48
2023/11/24 06:04:29;;;;;;;11.13;6.50;;;;;;;;;;5070304;28;20024;-47
2023/11/24 06:06:55;;;;;;;10.95;6.40;;;;;;;;;;5070323;28;20082;-46
2023/11/24 06:09:21;;;;;;;13.20;6.70;;;;;;;;;;5068723;28;20397;-52
2023/11/24 06:11:47;;;;;;;11.18;6.65;;;;;;;;;;5096173;22;20101;-63
2023/11/24 06:14:13;;;;;;;11.02;6.40;;;;;;;;;;5059234;28;20028;-63
2023/11/24 06:16:39;;;;;;;11.13;6.55;;;;;;;;;;5077203;28;20077;-62
2023/11/24 06:19:05;;;;;;;11.10;6.50;;;;;;;;;;5076873;28;20024;-63
2023/11/24 06:21:32;;;;;;;12.70;6.68;;;;;;;;;;5075101;28;20139;-62
2023/11/24 06:23:58;;;;;;;11.45;6.68;;;;;;;;;;5075854;28;20025;-64
2023/11/24 06:26:25;;;;;;;12.45;6.82;;;;;;;;;;5075385;28;20028;-62
2023/11/24 06:28:51;;;;;;;11.82;7.00;;;;;;;;;;5074765;28;20016;-63
2023/11/24 06:31:17;;;;;;;10.98;6.50;;;;;;;;;;5073927;28;20115;-63
2023/11/24 06:33:43;;;;;;;11.80;6.72;;;;;;;;;;5075828;28;20024;-63
2023/11/24 06:36:09;;;;;;;11.27;6.60;;;;;;;;;;5076605;28;20032;-63
2023/11/24 06:38:35;;;;;;;10.98;6.40;;;;;;;;;;5076824;28;20036;-63
2023/11/24 06:41:01;;;;;;;11.90;7.10;;;;;;;;;;5075728;28;20047;-63
2023/11/24 06:43:28;;;;;;;12.77;7.40;;;;;;;;;;5075961;28;20020;-64
2023/11/24 06:45:54;;;;;;;13.18;7.75;;;;;;;;;;5076301;28;20025;-61
2023/11/24 06:48:20;;;;;;;13.38;8.13;;;;;;;;;;5075617;28;20016;-62
2023/11/24 06:50:46;;;;;;;13.15;7.70;;;;;;;;;;5073897;28;20047;-62
2023/11/24 06:53:13;;;;;;;19.08;8.10;;;;;;;;;;5076130;28;20408;-62
2023/11/24 06:55:39;;;;;;;15.80;8.60;;;;;;;;;;5074901;28;20028;-61
2023/11/24 06:58:07;;;;;;;12.65;7.30;;;;;;;;;;5074168;28;20080;-59
2023/11/24 07:00:33;;;;;;;12.57;7.28;;;;;;;;;;5072001;28;20374;-63
2023/11/24 07:02:59;;;;;;;14.38;7.90;;;;;;;;;;5075285;28;20032;-63
2023/11/24 07:05:25;;;;;;;12.05;7.00;;;;;;;;;;5075363;28;20055;-63
2023/11/24 07:07:51;;;;;;;11.60;6.75;;;;;;;;;;5076372;28;20017;-61
2023/11/24 07:10:17;;;;;;;11.30;6.60;;;;;;;;;;5073627;28;20025;-63
2023/11/24 07:12:43;;;;;;;11.35;6.57;;;;;;;;;;5075709;28;20406;-63
2023/11/24 07:15:10;;;;;;;12.05;7.03;;;;;;;;;;5074802;28;20098;-64
2023/11/24 07:17:39;;;;;;;12.00;6.78;;;;;;;;;;5076878;28;20501;-62
2023/11/24 07:20:11;;;;;;;13.25;7.00;;;;;;;;;;5075111;28;20047;-63
2023/11/24 07:22:37;;;;;;;11.00;6.47;;;;;;;;;;5082590;28;20028;-64
2023/11/24 07:25:03;;;;;;;11.93;6.93;;;;;;;;;;5094911;28;20020;-62
2023/11/24 07:27:30;;;;;;;11.90;7.32;;;;;;;;;;5074058;28;20021;-63
2023/11/24 07:29:56;;;;;;;12.57;7.25;;;;;;;;;;5072909;28;20021;-63
2023/11/24 07:32:27;;;;;;;11.90;6.97;;;;;;;;;;5057230;28;20025;-61
2023/11/24 07:34:53;;;;;;;12.00;6.90;;;;;;;;;;5061965;28;20021;-62
2023/11/24 07:37:19;;;;;;;12.30;7.03;;;;;;;;;;5079496;28;20021;-61
2023/11/24 07:39:45;;;;;;;13.10;7.30;;;;;;;;;;5078562;28;20025;-62
2023/11/24 07:42:12;;;;;;;11.60;6.80;;;;;;;;;;5079657;28;20482;-63
2023/11/24 07:44:38;;;;;;;12.07;6.88;;;;;;;;;;5064782;28;20120;-63
2023/11/24 07:47:05;;;;;;;13.90;8.32;;;;;;;;;;5059138;28;20082;-63
2023/11/24 07:49:31;;;;;;;11.40;6.70;;;;;;;;;;5059177;28;20036;-63
2023/11/24 07:51:57;;;;;;;12.20;7.10;;;;;;;;;;5058120;28;20028;-60
2023/11/24 07:54:23;;;;;;;11.52;6.63;;;;;;;;;;5056882;28;20139;-60
2023/11/24 07:56:49;;;;;;;11.20;6.45;;;;;;;;;;5058714;28;20449;-62
2023/11/24 07:59:15;;;;;;;12.02;7.15;;;;;;;;;;5058792;28;20033;-61
2023/11/24 08:01:41;;;;;;;11.35;6.68;;;;;;;;;;5073337;28;20035;-63
2023/11/24 08:04:08;;;;;;;11.18;6.50;;;;;;;;;;5079187;28;20056;-63
2023/11/24 08:06:34;;;;;;;10.48;6.13;;;;;;;;;;5081366;28;20439;-63
2023/11/24 08:09:03;;;;;;;11.70;6.70;;;;;;;;;;5077317;28;20024;-62
2023/11/24 08:11:30;;;;;;;12.00;6.95;;;;;;;;;;5079233;28;20436;-63
2023/11/24 08:13:57;;;;;;;13.80;9.23;;;;;;;;;;5080036;28;20024;-63
2023/11/24 08:16:23;;;;;;;14.35;10.77;;;;;;;;;;5079880;28;20028;-63
2023/11/24 08:18:50;;;;;;;14.80;11.68;;;;;;;;;;5078033;28;20025;-64
2023/11/24 08:21:16;;;;;;;14.73;11.90;;;;;;;;;;5074960;28;20035;-60
2023/11/24 08:23:42;;;;;;;18.08;14.18;;;;;;;;;;5071591;28;20021;-51
2023/11/24 08:26:10;;;;;;;15.52;13.48;;;;;;;;;;5071769;28;20032;-54
2023/11/24 08:28:36;;;;;;;16.30;13.27;;;;;;;;;;5070434;28;20492;-52
2023/11/24 08:31:02;;;;;;;17.20;12.65;;;;;;;;;;5070679;28;20024;-54
2023/11/24 08:33:28;;;;;;;14.38;10.82;;;;;;;;;;5070392;28;20029;-54
2023/11/24 08:35:54;;;;;;;15.23;11.70;;;;;;;;;;5071457;28;20509;-56
2023/11/24 08:38:20;;;;;;;14.70;11.43;;;;;;;;;;5071342;28;20035;-56
2023/11/24 08:40:46;;;;;;;14.50;11.00;;;;;;;;;;5070190;28;20048;-51
2023/11/24 08:43:12;;;;;;;15.63;11.10;;;;;;;;;;5070583;28;20082;-48
2023/11/24 08:45:38;;;;;;;14.35;10.65;;;;;;;;;;5050180;28;20112;-52
2023/11/24 08:48:04;;;;;;;15.27;11.65;;;;;;;;;;5062396;28;20103;-54
2023/11/24 08:50:31;;;;;;;15.25;11.35;;;;;;;;;;5064188;28;20017;-51
2023/11/24 08:52:57;;;;;;;15.10;12.60;;;;;;;;;;5049729;28;20048;-51
2023/11/24 08:55:23;;;;;;;16.17;14.43;;;;;;;;;;5059736;28;20028;-50
2023/11/24 08:57:49;;;;;;;21.65;19.60;;;;;;;;;;5068900;28;20417;-51
2023/11/24 09:00:16;;;;;;;21.10;19.10;;;;;;;;;;5066893;28;20036;-51
2023/11/24 09:02:43;;;;;;;21.08;19.08;;;;;;;;;;5050768;28;20063;-52
2023/11/24 09:05:09;;;;;;;23.75;21.63;;;;;;;;;;5048980;28;20047;-52
2023/11/24 09:07:36;;;;;;;25.35;22.83;;;;;;;;;;5050076;28;20048;-50
2023/11/24 09:10:02;;;;;;;25.40;23.15;;;;;;;;;;5049631;28;20135;-49
2023/11/24 09:12:28;;;;;;;23.77;21.67;;;;;;;;;;5050108;28;20021;-55
2023/11/24 09:14:54;;;;;;;23.40;21.30;;;;;;;;;;5049190;28;20021;-51
2023/11/24 09:17:20;;;;;;;23.20;21.10;;;;;;;;;;5050137;28;20032;-54
2023/11/24 09:19:47;;;;;;;23.55;21.30;;;;;;;;;;5049608;28;20029;-57
2023/11/24 09:22:14;;;;;;;23.50;21.40;;;;;;;;;;5069007;28;20097;-56
2023/11/24 09:24:40;;;;;;;21.40;19.40;;;;;;;;;;5069920;28;20371;-52
2023/11/24 09:27:06;;;;;;;22.02;20.02;;;;;;;;;;5069777;28;20013;-56
2023/11/24 09:29:32;;;;;;;22.08;20.08;;;;;;;;;;5069953;28;20028;-54
2023/11/24 09:31:58;;;;;;;22.88;20.77;;;;;;;;;;5068975;28;20052;-54
2023/11/24 09:34:25;;;;;;;21.88;19.88;;;;;;;;;;5068732;28;20486;-52
2023/11/24 09:36:51;;;;;;;22.40;20.40;;;;;;;;;;5068858;28;20047;-51
2023/11/24 09:39:17;;;;;;;22.27;20.27;;;;;;;;;;5069504;28;20033;-52
2023/11/24 09:41:46;;;;;;;26.02;20.75;;;;;;;;;;5069018;28;20024;-55
2023/11/24 09:44:14;;;;;;;22.15;20.15;;;;;;;;;;5069775;28;20024;-55
2023/11/24 09:46:41;;;;;;;22.65;20.50;;;;;;;;;;5069588;28;20100;-55
2023/11/24 09:49:11;;;;;;;21.73;19.73;;;;;;;;;;5069208;28;20020;-54
2023/11/24 09:51:39;;;;;;;21.80;19.80;;;;;;;;;;5068795;28;20021;-52
2023/11/24 09:54:06;;;;;;;21.50;19.50;;;;;;;;;;5069402;28;20028;-53
2023/11/24 09:56:35;;;;;;;21.65;19.65;;;;;;;;;;5069739;28;20042;-54
2023/11/24 09:59:08;;;;;;;20.95;18.95;;;;;;;;;;5068862;28;20059;-55
2023/11/24 10:01:36;;;;;;;21.60;19.50;;;;;;;;;;5068654;28;20032;-52
2023/11/24 10:04:03;;;;;;;20.92;18.92;;;;;;;;;;5069472;28;20024;-52
2023/11/24 10:06:29;;;;;;;20.58;18.67;;;;;;;;;;5069580;28;20024;-52
2023/11/24 10:08:57;;;;;;;20.33;18.42;;;;;;;;;;5069547;28;20024;-56
2023/11/24 10:11:28;;;;;;;20.27;18.38;;;;;;;;;;5068359;28;20482;-52
2023/11/24 10:13:55;;;;;;;20.17;18.27;;;;;;;;;;5069984;28;20111;-54
2023/11/24 10:16:24;;;;;;;20.27;18.38;;;;;;;;;;5070043;28;20028;-57
2023/11/24 10:18:50;;;;;;;20.10;18.20;;;;;;;;;;5069662;28;20493;-54
2023/11/24 10:21:16;;;;;;;20.20;18.30;;;;;;;;;;5068930;28;20033;-57
2023/11/24 10:23:43;;;;;;;20.52;18.52;;;;;;;;;;5069018;28;20032;-53
2023/11/24 10:26:16;;;;;;;20.38;18.42;;;;;;;;;;5068934;28;20024;-55
2023/11/24 10:28:45;;;;;;;19.77;17.88;;;;;;;;;;5069056;28;20037;-54
2023/11/24 10:31:15;;;;;;;18.95;17.05;;;;;;;;;;5068668;28;20123;-53
2023/11/24 10:33:41;;;;;;;19.40;17.50;;;;;;;;;;5068675;28;20510;-51
2023/11/24 10:36:08;;;;;;;19.45;17.55;;;;;;;;;;5068347;28;20032;-54
2023/11/24 10:38:35;;;;;;;19.42;17.52;;;;;;;;;;5069075;28;20090;-50
2023/11/24 10:41:01;;;;;;;19.25;17.35;;;;;;;;;;5068493;28;20308;-54
2023/11/24 10:43:33;;;;;;;19.27;17.38;;;;;;;;;;5068949;28;20128;-55
2023/11/24 10:46:04;;;;;;;19.63;17.73;;;;;;;;;;5070103;28;20028;-53
2023/11/24 10:48:49;;;;;;;19.90;17.88;;;;;;;;;;5067731;28;20494;-55
2023/11/24 10:51:18;;;;;;;16.65;14.88;;;;;;;;;;5066947;28;20051;-55
2023/11/24 10:53:49;;;;;;;16.52;14.82;;;;;;;;;;5069120;28;20047;-53
2023/11/24 10:56:18;;;;;;;16.67;14.98;;;;;;;;;;5069282;28;20027;-54
2023/11/24 10:58:47;;;;;;;16.58;14.88;;;;;;;;;;5069153;28;20389;-55
2023/11/24 11:01:14;;;;;;;15.73;14.02;;;;;;;;;;5068309;28;20025;-55
2023/11/24 11:03:40;;;;;;;14.60;11.20;;;;;;;;;;5069274;28;20086;-57
2023/11/24 11:06:25;;;;;;;13.60;8.60;;;;;;;;;;5069079;28;20025;-55
2023/11/24 11:09:08;;;;;;;13.52;8.05;;;;;;;;;;5070369;28;20119;-58
2023/11/24 11:11:44;;;;;;;18.42;8.20;;;;;;;;;;5071953;28;20434;-53
2023/11/24 11:14:13;;;;;;;13.30;7.93;;;;;;;;;;5072436;28;20100;-56
2023/11/24 11:16:39;;;;;;;13.15;7.70;;;;;;;;;;5072771;28;20059;-52
2023/11/24 11:19:24;;;;;;;18.27;8.40;;;;;;;;;;5069573;28;20039;-56
2023/11/24 11:21:55;;;;;;;12.25;7.07;;;;;;;;;;5070588;28;20052;-55
2023/11/24 11:24:25;;;;;;;12.93;7.50;;;;;;;;;;5070525;28;20028;-52
2023/11/24 11:26:52;;;;;;;16.38;9.50;;;;;;;;;;5072181;28;20013;-56
2023/11/24 11:29:19;;;;;;;13.25;8.00;;;;;;;;;;5072021;28;20405;-55
2023/11/24 11:31:56;;;;;;;12.93;7.47;;;;;;;;;;5073929;28;20100;-57
2023/11/24 11:34:29;;;;;;;15.25;8.35;;;;;;;;;;5072990;28;20021;-55
2023/11/24 11:37:11;;;;;;;13.80;8.05;;;;;;;;;;5073039;28;20054;-54
2023/11/24 11:39:38;;;;;;;14.30;8.68;;;;;;;;;;5071870;28;20028;-57
2023/11/24 11:42:05;;;;;;;14.60;8.20;;;;;;;;;;5071001;28;20032;-56
2023/11/24 11:44:36;;;;;;;14.90;8.00;;;;;;;;;;5071830;28;20438;-52
2023/11/24 11:47:10;;;;;;;13.63;8.48;;;;;;;;;;5072097;28;20112;-52
2023/11/24 11:49:43;;;;;;;13.27;7.88;;;;;;;;;;5073739;28;20087;-54
2023/11/24 11:52:11;;;;;;;12.95;7.20;;;;;;;;;;5066783;28;20069;-55
2023/11/24 11:54:38;;;;;;;13.20;7.70;;;;;;;;;;5071348;28;20069;-56
2023/11/24 11:57:04;;;;;;;12.93;7.60;;;;;;;;;;5071540;28;20275;-55
2023/11/24 11:59:30;;;;;;;13.60;7.88;;;;;;;;;;5071128;28;20021;-53
2023/11/24 12:01:56;;;;;;;13.02;7.60;;;;;;;;;;5069893;28;20035;-53
2023/11/24 12:04:23;;;;;;;12.88;7.70;;;;;;;;;;5071355;28;20100;-54
2023/11/24 12:06:51;;;;;;;25.60;7.10;;;;;;;;;;5070817;28;20720;-56
2023/11/24 12:09:20;;;;;;;13.50;7.35;;;;;;;;;;5071846;28;20085;-57
2023/11/24 12:11:46;;;;;;;17.67;7.20;;;;;;;;;;5063408;28;20475;-56
2023/11/24 12:14:13;;;;;;;12.68;7.25;;;;;;;;;;5071932;28;20149;-55
2023/11/24 12:16:40;;;;;;;13.30;7.68;;;;;;;;;;5071653;28;20037;-55
2023/11/24 12:19:07;;;;;;;13.23;7.80;;;;;;;;;;5071732;28;20028;-54
2023/11/24 12:21:35;;;;;;;25.17;7.90;;;;;;;;;;5070263;28;20471;-54
2023/11/24 12:24:01;;;;;;;16.87;8.40;;;;;;;;;;5070213;28;20082;-52
2023/11/24 12:26:27;;;;;;;13.45;8.07;;;;;;;;;;5071115;28;20357;-57
2023/11/24 12:28:56;;;;;;;17.42;15.57;;;;;;;;;;5070968;28;20043;-56
2023/11/24 12:31:26;;;;;;;19.92;16.60;;;;;;;;;;5070520;28;20199;-56
2023/11/24 12:33:52;;;;;;;27.02;22.83;;;;;;;;;;5070882;28;20628;-54
2023/11/24 12:36:18;;;;;;;24.23;22.00;;;;;;;;;;5069262;28;20027;-55
2023/11/24 12:38:44;;;;;;;28.25;22.48;;;;;;;;;;5071260;28;20657;-51
2023/11/24 12:41:11;;;;;;;26.05;22.13;;;;;;;;;;5070357;28;20028;-55
2023/11/24 12:43:37;;;;;;;21.60;19.60;;;;;;;;;;5071649;28;20071;-55
2023/11/24 12:46:03;;;;;;;21.33;19.15;;;;;;;;;;5070910;28;20053;-52
2023/11/24 12:48:37;;;;;;;19.77;17.73;;;;;;;;;;5069867;28;20025;-52
2023/11/24 12:51:03;;;;;;;18.13;16.33;;;;;;;;;;5070510;28;20025;-55
2023/11/24 12:53:33;;;;;;;26.65;17.25;;;;;;;;;;5069433;28;20029;-54
2023/11/24 12:55:59;;;;;;;19.40;17.27;;;;;;;;;;5070799;28;20071;-53
2023/11/24 12:58:25;;;;;;;17.42;15.63;;;;;;;;;;5070437;28;20025;-55
2023/11/24 13:00:53;;;;;;;17.30;15.50;;;;;;;;;;5052454;28;20025;-54
2023/11/24 13:03:19;;;;;;;18.70;16.80;;;;;;;;;;5069561;28;20029;-56
2023/11/24 13:05:45;;;;;;;18.80;17.00;;;;;;;;;;5070758;28;20036;-57
2023/11/24 13:08:12;;;;;;;19.17;17.38;;;;;;;;;;5070988;28;20561;-57
2023/11/24 13:10:38;;;;;;;25.38;22.85;;;;;;;;;;5069997;28;20076;-56
2023/11/24 13:13:05;;;;;;;25.67;23.10;;;;;;;;;;5070182;28;20097;-57
2023/11/24 13:15:32;;;;;;;24.70;22.50;;;;;;;;;;5068736;28;20028;-53
2023/11/24 13:17:58;;;;;;;23.85;21.75;;;;;;;;;;5069716;28;20032;-57
2023/11/24 13:20:32;;;;;;;23.77;21.67;;;;;;;;;;5069585;28;20048;-54
2023/11/24 13:22:58;;;;;;;22.80;20.80;;;;;;;;;;5069175;28;20503;-56
2023/11/24 13:25:26;;;;;;;22.38;20.30;;;;;;;;;;5070258;28;20056;-53
2023/11/24 13:27:53;;;;;;;22.65;20.63;;;;;;;;;;5070234;28;20243;-56
2023/11/24 13:30:21;;;;;;;21.17;19.17;;;;;;;;;;5069288;28;20386;-54
2023/11/24 13:32:47;;;;;;;;;;;;;;;;;;5068377;28;20529;-56
2023/11/24 13:35:19;;;;;;;20.60;18.70;;;;;;;;;;5068428;28;19905;-56
2023/11/24 13:37:47;;;;;;;21.17;19.17;;;;;;;;;;5070097;28;20026;-58
2023/11/24 13:40:15;;;;;;;21.50;19.27;;;;;;;;;;5069033;28;20027;-53
2023/11/24 13:42:41;;;;;;;19.30;17.45;;;;;;;;;;5069879;28;20033;-54
2023/11/24 13:45:11;;;;;;;19.60;17.70;;;;;;;;;;5069445;28;20351;-53
2023/11/24 13:47:37;;;;;;;18.35;16.55;;;;;;;;;;5068941;28;20027;-54
2023/11/24 13:50:04;;;;;;;17.70;15.90;;;;;;;;;;5068933;28;20021;-55
2023/11/24 13:52:33;;;;;;;15.10;12.50;;;;;;;;;;5069519;28;20035;-56
2023/11/24 13:55:00;;;;;;;16.95;13.50;;;;;;;;;;5069773;28;20048;-54
2023/11/24 13:57:26;;;;;;;16.05;13.60;;;;;;;;;;5069606;28;20371;-57
2023/11/24 13:59:53;;;;;;;16.98;15.18;;;;;;;;;;5068580;28;20035;-54
2023/11/24 14:02:19;;;;;;;20.40;13.00;;;;;;;;;;5069881;28;20486;-54
2023/11/24 14:04:45;;;;;;;16.85;13.00;;;;;;;;;;5066551;28;20056;-53
2023/11/24 14:07:14;;;;;;;17.45;12.95;;;;;;;;;;5070015;28;20096;-52
2023/11/24 14:09:40;;;;;;;18.63;16.73;;;;;;;;;;5069371;28;20024;-51
2023/11/24 14:12:08;;;;;;;21.45;19.45;;;;;;;;;;5068572;28;20105;-54
2023/11/24 14:14:34;;;;;;;23.45;21.25;;;;;;;;;;5069187;28;20494;-54
2023/11/24 14:17:02;;;;;;;22.63;20.63;;;;;;;;;;5069065;28;20415;-54
2023/11/24 14:19:28;;;;;;;21.85;19.85;;;;;;;;;;5069188;28;20047;-54
2023/11/24 14:21:59;;;;;;;23.90;21.80;;;;;;;;;;5067433;28;20028;-53
2023/11/24 14:24:25;;;;;;;23.75;21.65;;;;;;;;;;5069688;28;20029;-54